createdAt,value
2023-03-29T00:01:00.993Z,3.66
2023-03-29T00:02:02.931Z,3.80
2023-03-29T00:03:04.881Z,3.81
2023-03-29T00:04:07.010Z,3.89
2023-03-29T00:05:09.956Z,4.01
2023-03-29T00:06:15.209Z,3.99
2023-03-29T00:07:16.858Z,4.00
2023-03-29T00:08:22.007Z,3.94
2023-03-29T00:09:26.555Z,3.92
2023-03-29T00:10:28.503Z,3.83
2023-03-29T00:11:30.230Z,3.83
2023-03-29T00:12:32.251Z,3.83
2023-03-29T00:13:34.082Z,3.84
2023-03-29T00:14:35.795Z,3.81
2023-03-29T00:15:37.512Z,3.78
2023-03-29T00:16:39.694Z,3.74
2023-03-29T00:17:41.460Z,3.72
2023-03-29T00:18:43.785Z,3.73
2023-03-29T00:19:46.632Z,3.68
2023-03-29T00:20:58.963Z,3.65
2023-03-29T00:22:00.675Z,3.67
2023-03-29T00:23:02.385Z,3.63
2023-03-29T00:24:04.274Z,3.66
2023-03-29T00:25:07.286Z,3.62
2023-03-29T00:26:08.926Z,3.64
2023-03-29T00:27:10.571Z,3.70
2023-03-29T00:28:13.891Z,3.57
2023-03-29T00:29:16.018Z,3.61
2023-03-29T00:30:17.793Z,3.54
2023-03-29T00:31:19.469Z,3.50
2023-03-29T00:32:21.161Z,3.47
2023-03-29T00:33:22.858Z,3.54
2023-03-29T00:34:26.386Z,3.58
2023-03-29T00:35:28.039Z,3.56
2023-03-29T00:36:29.679Z,3.56
2023-03-29T00:37:31.603Z,3.57
2023-03-29T00:38:33.387Z,3.43
2023-03-29T00:39:36.323Z,3.46
2023-03-29T00:40:43.090Z,3.41
2023-03-29T00:41:49.727Z,3.34
2023-03-29T00:42:51.405Z,3.33
2023-03-29T00:44:01.755Z,3.30
2023-03-29T00:45:12.390Z,3.33
2023-03-29T00:46:15.355Z,3.26
2023-03-29T00:47:18.188Z,3.34
2023-03-29T00:48:22.526Z,3.27
2023-03-29T00:49:24.200Z,3.18
2023-03-29T00:50:31.657Z,3.18
2023-03-29T00:51:35.789Z,3.25
2023-03-29T00:52:39.600Z,3.18
2023-03-29T00:53:48.610Z,3.09
2023-03-29T00:54:54.274Z,3.09
2023-03-29T00:56:14.207Z,3.12
2023-03-29T00:57:17.408Z,3.14
2023-03-29T00:58:23.445Z,3.10
2023-03-29T00:59:27.607Z,3.11
2023-03-29T01:00:33.602Z,3.10
2023-03-29T01:03:37.402Z,3.06
2023-03-29T01:04:53.686Z,3.03
2023-03-29T01:05:58.662Z,2.94
2023-03-29T01:07:28.505Z,2.98
2023-03-29T01:08:35.589Z,3.04
2023-03-29T01:09:40.970Z,3.07
2023-03-29T01:10:50.250Z,3.10
2023-03-29T01:11:55.070Z,3.21
2023-03-29T01:13:03.246Z,3.09
2023-03-29T01:14:07.450Z,3.21
2023-03-29T01:15:12.204Z,3.25
2023-03-29T01:16:20.652Z,3.21
2023-03-29T01:17:25.850Z,3.05
2023-03-29T01:18:27.983Z,3.10
2023-03-29T01:19:36.959Z,2.99
2023-03-29T01:21:24.165Z,2.96
2023-03-29T01:22:30.696Z,3.11
2023-03-29T01:23:55.080Z,2.94
2023-03-29T01:25:46.921Z,2.99
2023-03-29T01:27:12.811Z,3.05
2023-03-29T01:28:35.135Z,2.99
2023-03-29T01:29:48.535Z,3.08
2023-03-29T01:30:53.602Z,2.97
2023-03-29T01:32:22.329Z,3.01
2023-03-29T01:33:29.251Z,2.98
2023-03-29T01:35:03.602Z,2.98
2023-03-29T01:36:13.792Z,3.12
2023-03-29T01:37:30.746Z,3.04
2023-03-29T01:38:48.574Z,3.05
2023-03-29T01:39:52.160Z,3.03
2023-03-29T01:40:54.939Z,2.96
2023-03-29T01:42:09.403Z,2.97
2023-03-29T01:43:28.635Z,2.98
2023-03-29T01:44:42.005Z,3.11
2023-03-29T01:46:08.122Z,3.01
2023-03-29T01:47:21.035Z,3.01
2023-03-29T01:48:28.209Z,3.03
2023-03-29T01:49:40.196Z,3.01
2023-03-29T01:51:14.043Z,3.00
2023-03-29T01:52:27.254Z,3.00
2023-03-29T01:53:52.184Z,2.94
2023-03-29T01:55:01.470Z,3.09
2023-03-29T01:56:08.545Z,3.14
2023-03-29T01:57:10.803Z,3.01
2023-03-29T01:58:13.160Z,3.08
2023-03-29T01:59:20.766Z,2.99
2023-03-29T02:00:25.387Z,2.95
2023-03-29T02:01:32.580Z,2.87
2023-03-29T02:02:35.000Z,2.85
2023-03-29T02:03:42.784Z,2.85
2023-03-29T02:04:53.483Z,2.82
2023-03-29T02:05:56.629Z,2.76
2023-03-29T02:07:04.474Z,2.90
2023-03-29T02:08:08.311Z,2.87
2023-03-29T02:09:10.680Z,2.81
2023-03-29T02:10:15.395Z,2.74
2023-03-29T02:11:17.891Z,2.71
2023-03-29T02:12:20.677Z,2.74
2023-03-29T02:13:23.768Z,2.72
2023-03-29T02:14:27.919Z,2.80
2023-03-29T02:15:30.697Z,2.85
2023-03-29T02:16:37.169Z,2.80
2023-03-29T02:17:38.997Z,2.76
2023-03-29T02:18:45.848Z,2.74
2023-03-29T02:19:53.834Z,2.77
2023-03-29T02:20:57.507Z,2.80
2023-03-29T02:22:04.600Z,2.72
2023-03-29T02:23:28.817Z,2.71
2023-03-29T02:24:34.598Z,2.68
2023-03-29T02:25:38.317Z,2.72
2023-03-29T02:26:41.953Z,2.78
2023-03-29T02:27:44.370Z,2.76
2023-03-29T02:28:46.165Z,2.69
2023-03-29T02:29:50.213Z,2.67
2023-03-29T02:31:00.229Z,2.62
2023-03-29T02:32:02.522Z,2.70
2023-03-29T02:33:10.975Z,2.81
2023-03-29T02:34:28.924Z,2.70
2023-03-29T02:35:36.684Z,2.68
2023-03-29T02:37:01.480Z,2.71
2023-03-29T02:38:07.378Z,2.70
2023-03-29T02:39:13.938Z,2.70
2023-03-29T02:40:17.110Z,2.74
2023-03-29T02:41:20.029Z,2.65
2023-03-29T02:42:24.221Z,2.70
2023-03-29T02:43:28.614Z,2.66
2023-03-29T02:44:34.184Z,2.63
2023-03-29T02:45:38.274Z,2.60
2023-03-29T02:46:50.087Z,2.65
2023-03-29T02:47:56.324Z,2.70
2023-03-29T02:49:00.636Z,2.67
2023-03-29T02:50:02.947Z,2.70
2023-03-29T02:51:16.330Z,2.72
2023-03-29T02:52:24.049Z,2.65
2023-03-29T02:53:50.478Z,2.74
2023-03-29T02:54:54.531Z,2.87
2023-03-29T02:55:56.837Z,2.79
2023-03-29T02:57:06.616Z,2.84
2023-03-29T02:58:13.766Z,2.89
2023-03-29T02:59:18.063Z,2.86
2023-03-29T03:00:20.531Z,2.97
2023-03-29T03:01:23.088Z,2.82
2023-03-29T03:02:29.789Z,2.77
2023-03-29T03:03:32.838Z,2.76
2023-03-29T03:04:36.668Z,2.71
2023-03-29T03:05:39.072Z,2.68
2023-03-29T03:06:41.808Z,2.70
2023-03-29T03:07:48.672Z,2.76
2023-03-29T03:08:51.730Z,2.83
2023-03-29T03:09:53.802Z,2.85
2023-03-29T03:10:55.934Z,2.84
2023-03-29T03:11:58.075Z,2.80
2023-03-29T03:13:00.897Z,2.82
2023-03-29T03:14:06.951Z,2.75
2023-03-29T03:15:11.914Z,2.77
2023-03-29T03:16:15.768Z,2.74
2023-03-29T03:17:19.295Z,2.73
2023-03-29T03:18:23.793Z,2.77
2023-03-29T03:19:26.376Z,2.90
2023-03-29T03:20:28.123Z,2.86
2023-03-29T03:21:31.785Z,2.96
2023-03-29T03:22:36.889Z,2.95
2023-03-29T03:23:39.077Z,2.93
2023-03-29T03:24:42.085Z,2.97
2023-03-29T03:25:46.276Z,2.89
2023-03-29T03:26:50.093Z,2.84
2023-03-29T03:27:53.726Z,2.77
2023-03-29T03:29:01.247Z,2.85
2023-03-29T03:30:22.960Z,2.76
2023-03-29T03:31:55.387Z,2.81
2023-03-29T03:33:18.538Z,2.90
2023-03-29T03:34:38.994Z,2.83
2023-03-29T03:35:43.425Z,2.81
2023-03-29T03:36:58.048Z,2.80
2023-03-29T03:38:00.664Z,2.75
2023-03-29T03:39:07.222Z,2.67
2023-03-29T03:40:12.266Z,2.60
2023-03-29T03:41:16.071Z,2.66
2023-03-29T03:42:18.593Z,2.68
2023-03-29T03:43:21.827Z,2.63
2023-03-29T03:44:25.303Z,2.66
2023-03-29T03:45:43.854Z,2.63
2023-03-29T03:46:49.651Z,2.58
2023-03-29T03:47:52.099Z,2.53
2023-03-29T03:49:29.184Z,2.56
2023-03-29T03:50:32.083Z,2.63
2023-03-29T03:51:35.568Z,2.72
2023-03-29T03:52:38.544Z,2.76
2023-03-29T03:53:41.891Z,2.74
2023-03-29T03:54:51.123Z,2.74
2023-03-29T03:56:18.308Z,2.82
2023-03-29T03:57:38.678Z,2.89
2023-03-29T03:58:44.385Z,2.92
2023-03-29T03:59:46.397Z,2.99
2023-03-29T04:00:55.323Z,3.09
2023-03-29T04:02:18.576Z,3.28
2023-03-29T04:03:22.113Z,3.38
2023-03-29T04:04:25.185Z,3.37
2023-03-29T04:05:50.421Z,3.44
2023-03-29T04:07:03.263Z,3.51
2023-03-29T04:08:48.115Z,3.54
2023-03-29T04:10:13.937Z,3.63
2023-03-29T04:11:37.385Z,3.83
2023-03-29T04:12:40.286Z,3.81
2023-03-29T04:13:43.052Z,3.84
2023-03-29T04:15:05.327Z,3.85
2023-03-29T04:16:09.639Z,3.89
2023-03-29T04:17:14.463Z,3.96
2023-03-29T04:18:40.858Z,4.05
2023-03-29T04:19:43.372Z,4.08
2023-03-29T04:20:46.436Z,4.13
2023-03-29T04:21:51.657Z,4.10
2023-03-29T04:22:55.621Z,4.20
2023-03-29T04:23:57.625Z,4.23
2023-03-29T04:25:22.916Z,4.29
2023-03-29T04:26:25.279Z,4.35
2023-03-29T04:27:37.246Z,4.37
2023-03-29T04:28:45.954Z,4.38
2023-03-29T04:29:57.409Z,4.31
2023-03-29T04:31:14.641Z,4.29
2023-03-29T04:32:25.664Z,4.37
2023-03-29T04:33:33.472Z,4.39
2023-03-29T04:34:42.118Z,4.41
2023-03-29T04:35:44.629Z,4.40
2023-03-29T04:36:51.305Z,4.42
2023-03-29T04:37:57.469Z,4.45
2023-03-29T04:39:01.828Z,4.53
2023-03-29T04:40:09.760Z,4.39
2023-03-29T04:41:27.766Z,4.36
2023-03-29T04:42:49.510Z,4.45
2023-03-29T04:43:53.638Z,4.45
2023-03-29T04:45:01.156Z,4.51
2023-03-29T04:46:27.383Z,4.48
2023-03-29T04:47:48.423Z,4.52
2023-03-29T04:48:54.845Z,4.45
2023-03-29T04:50:07.427Z,4.53
2023-03-29T04:51:18.095Z,4.50
2023-03-29T04:52:23.222Z,4.56
2023-03-29T04:53:26.872Z,4.49
2023-03-29T04:54:29.146Z,4.56
2023-03-29T04:56:01.039Z,4.55
2023-03-29T04:57:29.479Z,4.55
2023-03-29T04:58:39.766Z,4.47
2023-03-29T04:59:42.824Z,4.54
2023-03-29T05:01:11.034Z,4.46
2023-03-29T05:02:18.426Z,4.50
2023-03-29T05:03:23.467Z,4.53
2023-03-29T05:04:33.153Z,4.50
2023-03-29T05:05:44.089Z,4.49
2023-03-29T05:06:46.339Z,4.54
2023-03-29T05:07:48.447Z,4.57
2023-03-29T05:08:53.477Z,4.55
2023-03-29T05:10:00.412Z,4.50
2023-03-29T05:11:03.415Z,4.52
2023-03-29T05:12:06.890Z,4.53
2023-03-29T05:13:22.376Z,4.53
2023-03-29T05:14:24.317Z,4.53
2023-03-29T05:15:27.990Z,4.52
2023-03-29T05:16:32.759Z,4.56
2023-03-29T05:17:35.385Z,4.50
2023-03-29T05:18:43.075Z,4.49
2023-03-29T05:19:46.340Z,4.47
2023-03-29T05:20:53.530Z,4.51
2023-03-29T05:21:56.542Z,4.57
2023-03-29T05:23:01.979Z,4.55
2023-03-29T05:24:33.706Z,4.55
2023-03-29T05:25:42.100Z,4.58
2023-03-29T05:26:44.931Z,4.57
2023-03-29T05:27:50.090Z,4.53
2023-03-29T05:28:53.522Z,4.54
2023-03-29T05:29:58.019Z,4.58
2023-03-29T05:31:17.257Z,4.51
2023-03-29T05:32:24.165Z,4.55
2023-03-29T05:33:26.095Z,4.63
2023-03-29T05:34:31.571Z,4.65
2023-03-29T05:35:37.354Z,4.70
2023-03-29T05:36:45.648Z,4.71
2023-03-29T05:37:48.214Z,4.62
2023-03-29T05:38:50.362Z,4.61
2023-03-29T05:39:55.029Z,4.69
2023-03-29T05:41:14.197Z,4.67
2023-03-29T05:42:54.856Z,4.84
2023-03-29T05:43:57.197Z,4.78
2023-03-29T05:45:02.560Z,4.85
2023-03-29T05:46:06.264Z,4.77
2023-03-29T05:47:08.380Z,4.84
2023-03-29T05:48:11.621Z,4.84
2023-03-29T05:49:17.155Z,4.81
2023-03-29T05:50:42.391Z,4.80
2023-03-29T05:51:46.713Z,4.80
2023-03-29T05:52:49.357Z,4.85
2023-03-29T05:53:53.386Z,4.93
2023-03-29T05:54:56.810Z,4.95
2023-03-29T05:55:59.177Z,5.03
2023-03-29T05:57:05.077Z,5.08
2023-03-29T05:58:08.952Z,5.10
2023-03-29T05:59:11.859Z,5.18
2023-03-29T06:00:23.643Z,5.28
2023-03-29T06:01:32.779Z,5.36
2023-03-29T06:02:42.537Z,5.41
2023-03-29T06:03:48.086Z,5.48
2023-03-29T06:04:52.221Z,5.52
2023-03-29T06:06:15.369Z,5.64
2023-03-29T06:07:18.128Z,5.63
2023-03-29T06:08:35.141Z,5.55
2023-03-29T06:09:48.109Z,5.67
2023-03-29T06:10:52.065Z,5.63
2023-03-29T06:12:20.548Z,5.69
2023-03-29T06:13:31.138Z,5.82
2023-03-29T06:14:32.986Z,5.94
2023-03-29T06:15:52.703Z,5.98
2023-03-29T06:16:55.159Z,6.11
2023-03-29T06:17:57.457Z,6.28
2023-03-29T06:18:59.846Z,6.32
2023-03-29T06:20:08.510Z,6.56
2023-03-29T06:21:11.125Z,6.61
2023-03-29T06:22:14.993Z,6.70
2023-03-29T06:23:18.214Z,6.64
2023-03-29T06:24:20.799Z,6.64
2023-03-29T06:25:28.759Z,6.59
2023-03-29T06:26:31.054Z,6.59
2023-03-29T06:27:33.616Z,6.65
2023-03-29T06:28:36.633Z,6.64
2023-03-29T06:29:41.404Z,6.67
2023-03-29T06:30:44.754Z,6.58
2023-03-29T06:31:47.324Z,6.57
2023-03-29T06:33:08.986Z,6.56
2023-03-29T06:34:25.980Z,6.54
2023-03-29T06:35:57.886Z,6.61
2023-03-29T06:37:03.598Z,6.60
2023-03-29T06:38:05.729Z,6.51
2023-03-29T06:39:27.829Z,6.58
2023-03-29T06:40:48.764Z,6.57
2023-03-29T06:41:52.009Z,6.63
2023-03-29T06:43:13.311Z,6.59
2023-03-29T06:44:28.836Z,6.61
2023-03-29T06:45:40.360Z,6.63
2023-03-29T06:46:51.911Z,6.61
2023-03-29T06:47:54.344Z,6.56
2023-03-29T06:48:56.963Z,6.55
2023-03-29T06:50:06.857Z,6.50
2023-03-29T06:51:21.123Z,6.57
2023-03-29T06:52:26.296Z,6.54
2023-03-29T06:53:35.462Z,6.54
2023-03-29T06:54:41.647Z,6.59
2023-03-29T06:55:44.308Z,6.59
2023-03-29T06:57:08.207Z,6.62
2023-03-29T06:58:11.370Z,6.68
2023-03-29T06:59:15.706Z,6.65
2023-03-29T07:00:29.947Z,6.70
2023-03-29T07:01:53.025Z,6.76
2023-03-29T07:03:20.938Z,6.75
2023-03-29T07:04:26.694Z,6.80
2023-03-29T07:05:47.867Z,6.89
2023-03-29T07:07:01.854Z,6.83
2023-03-29T07:08:05.801Z,6.88
2023-03-29T07:09:19.586Z,6.89
2023-03-29T07:10:53.587Z,6.89
2023-03-29T07:12:14.364Z,6.85
2023-03-29T07:13:17.645Z,6.85
2023-03-29T07:14:19.917Z,6.92
2023-03-29T07:15:23.272Z,6.90
2023-03-29T07:17:01.372Z,6.96
2023-03-29T07:18:08.896Z,6.99
2023-03-29T07:19:12.723Z,7.01
2023-03-29T07:20:29.437Z,6.96
2023-03-29T07:21:40.491Z,6.97
2023-03-29T07:22:44.103Z,6.91
2023-03-29T07:23:46.154Z,6.87
2023-03-29T07:24:50.461Z,6.90
2023-03-29T07:25:53.282Z,6.87
2023-03-29T07:27:03.799Z,6.97
2023-03-29T07:28:08.421Z,6.95
2023-03-29T07:29:10.763Z,6.92
2023-03-29T07:30:16.980Z,6.89
2023-03-29T07:31:19.201Z,7.05
2023-03-29T07:32:28.493Z,7.02
2023-03-29T07:33:53.747Z,7.09
2023-03-29T07:34:55.778Z,7.04
2023-03-29T07:36:05.876Z,7.06
2023-03-29T07:37:09.557Z,7.09
2023-03-29T07:38:15.931Z,7.07
2023-03-29T07:39:26.325Z,7.12
2023-03-29T07:40:59.796Z,7.01
2023-03-29T07:42:22.392Z,7.16
2023-03-29T07:43:25.902Z,7.11
2023-03-29T07:44:29.820Z,7.19
2023-03-29T07:45:32.905Z,7.10
2023-03-29T07:46:45.652Z,7.09
2023-03-29T07:47:49.295Z,7.10
2023-03-29T07:48:51.427Z,7.14
2023-03-29T07:49:53.687Z,7.17
2023-03-29T07:50:56.295Z,7.21
2023-03-29T07:52:05.440Z,7.22
2023-03-29T07:53:13.836Z,7.10
2023-03-29T07:54:16.868Z,7.06
2023-03-29T07:55:33.340Z,7.10
2023-03-29T07:56:44.708Z,7.16
2023-03-29T07:58:14.439Z,7.26
2023-03-29T07:59:18.737Z,7.24
2023-03-29T08:00:28.101Z,7.30
2023-03-29T08:01:52.644Z,7.31
2023-03-29T08:03:14.358Z,7.33
2023-03-29T08:04:19.278Z,7.31
2023-03-29T08:05:41.651Z,7.27
2023-03-29T08:06:50.449Z,7.39
2023-03-29T08:07:55.883Z,7.40
2023-03-29T08:09:16.450Z,7.58
2023-03-29T08:10:20.758Z,7.73
2023-03-29T08:11:55.297Z,8.01
2023-03-29T08:13:08.596Z,8.48
2023-03-29T08:14:22.075Z,8.99
2023-03-29T08:15:46.335Z,9.87
2023-03-29T08:17:00.219Z,10.31
2023-03-29T08:18:02.199Z,10.93
2023-03-29T08:19:05.247Z,11.18
2023-03-29T08:20:26.517Z,11.42
2023-03-29T08:21:31.881Z,11.78
2023-03-29T08:22:34.470Z,12.34
2023-03-29T08:23:46.352Z,11.64
2023-03-29T08:24:57.471Z,11.36
2023-03-29T08:26:05.565Z,11.14
2023-03-29T08:27:08.304Z,10.91
2023-03-29T08:28:10.263Z,10.68
2023-03-29T08:29:19.927Z,10.47
2023-03-29T08:30:22.905Z,10.41
2023-03-29T08:31:26.554Z,10.26
2023-03-29T08:32:29.560Z,10.08
2023-03-29T08:33:32.505Z,9.98
2023-03-29T08:35:12.940Z,9.66
2023-03-29T08:36:28.094Z,9.66
2023-03-29T08:37:33.638Z,9.71
2023-03-29T08:38:36.190Z,9.47
2023-03-29T08:39:40.412Z,9.59
2023-03-29T08:41:00.028Z,9.50
2023-03-29T08:42:16.631Z,9.53
2023-03-29T08:43:23.036Z,9.48
2023-03-29T08:45:08.298Z,9.49
2023-03-29T08:46:16.909Z,9.54
2023-03-29T08:47:38.104Z,9.39
2023-03-29T08:48:46.383Z,9.18
2023-03-29T08:49:57.148Z,9.20
2023-03-29T08:51:23.385Z,9.36
2023-03-29T08:52:38.131Z,9.31
2023-03-29T08:54:02.735Z,9.42
2023-03-29T08:55:43.506Z,9.31
2023-03-29T08:57:19.791Z,9.29
2023-03-29T08:58:29.259Z,9.36
2023-03-29T08:59:33.699Z,9.44
2023-03-29T09:00:47.834Z,9.45
2023-03-29T09:01:53.938Z,9.41
2023-03-29T09:02:57.665Z,9.43
2023-03-29T09:04:03.666Z,9.49
2023-03-29T09:05:31.314Z,9.61
2023-03-29T09:06:44.451Z,9.76
2023-03-29T09:07:53.736Z,9.87
2023-03-29T09:08:57.371Z,9.96
2023-03-29T09:10:01.400Z,10.16
2023-03-29T09:11:28.214Z,10.47
2023-03-29T09:12:30.374Z,10.25
2023-03-29T09:14:02.916Z,10.25
2023-03-29T09:15:19.754Z,10.17
2023-03-29T09:16:38.894Z,10.23
2023-03-29T09:18:08.503Z,10.21
2023-03-29T09:19:34.586Z,10.09
2023-03-29T09:20:54.030Z,10.11
2023-03-29T09:22:09.416Z,10.13
2023-03-29T09:23:39.257Z,10.31
2023-03-29T09:25:01.840Z,10.26
2023-03-29T09:26:04.236Z,10.36
2023-03-29T09:27:28.014Z,10.46
2023-03-29T09:28:53.657Z,10.56
2023-03-29T09:30:26.104Z,10.56
2023-03-29T09:31:43.054Z,10.53
2023-03-29T09:32:55.478Z,10.53
2023-03-29T09:34:24.184Z,10.34
2023-03-29T09:35:33.606Z,10.28
2023-03-29T09:36:56.710Z,10.39
2023-03-29T09:37:58.816Z,10.41
2023-03-29T09:39:01.346Z,10.41
2023-03-29T09:40:14.057Z,10.46
2023-03-29T09:41:57.365Z,10.30
2023-03-29T09:43:02.310Z,10.30
2023-03-29T09:44:27.796Z,10.35
2023-03-29T09:45:38.848Z,10.43
2023-03-29T09:46:52.994Z,10.42
2023-03-29T09:47:58.933Z,10.32
2023-03-29T09:49:07.684Z,10.31
2023-03-29T09:50:30.032Z,10.41
2023-03-29T09:51:34.649Z,10.37
2023-03-29T09:52:37.459Z,10.45
2023-03-29T09:53:49.336Z,10.26
2023-03-29T09:55:04.957Z,10.29
2023-03-29T09:56:19.475Z,10.24
2023-03-29T09:57:27.117Z,10.29
2023-03-29T09:58:32.782Z,10.38
2023-03-29T09:59:36.097Z,10.43
2023-03-29T10:00:42.295Z,10.41
2023-03-29T10:01:47.501Z,10.52
2023-03-29T10:02:57.406Z,10.42
2023-03-29T10:04:10.990Z,10.54
2023-03-29T10:05:16.356Z,10.60
2023-03-29T10:06:21.336Z,10.65
2023-03-29T10:07:44.560Z,10.72
2023-03-29T10:08:51.627Z,10.84
2023-03-29T10:09:56.345Z,10.80
2023-03-29T10:10:59.171Z,10.95
2023-03-29T10:12:05.518Z,10.99
2023-03-29T10:13:12.724Z,10.92
2023-03-29T10:14:23.266Z,10.98
2023-03-29T10:15:29.978Z,10.99
2023-03-29T10:16:46.610Z,11.01
2023-03-29T10:17:48.739Z,11.00
2023-03-29T10:18:51.524Z,11.13
2023-03-29T10:19:58.263Z,11.12
2023-03-29T10:21:03.075Z,11.23
2023-03-29T10:22:16.413Z,11.25
2023-03-29T10:23:19.037Z,11.38
2023-03-29T10:24:26.065Z,11.31
2023-03-29T10:25:31.822Z,11.35
2023-03-29T10:26:34.671Z,11.53
2023-03-29T10:27:36.772Z,11.50
2023-03-29T10:28:40.386Z,11.60
2023-03-29T10:29:44.060Z,11.71
2023-03-29T10:30:49.089Z,11.84
2023-03-29T10:31:51.409Z,12.09
2023-03-29T10:32:59.199Z,12.25
2023-03-29T10:34:04.100Z,12.20
2023-03-29T10:35:25.009Z,12.35
2023-03-29T10:36:27.754Z,12.45
2023-03-29T10:37:30.031Z,12.65
2023-03-29T10:38:33.469Z,12.72
2023-03-29T10:39:35.792Z,12.78
2023-03-29T10:40:43.558Z,12.91
2023-03-29T10:41:45.878Z,12.91
2023-03-29T10:42:52.289Z,12.99
2023-03-29T10:43:54.948Z,13.05
2023-03-29T10:45:00.550Z,13.11
2023-03-29T10:46:13.479Z,13.21
2023-03-29T10:47:18.049Z,13.40
2023-03-29T10:48:26.408Z,13.35
2023-03-29T10:49:28.316Z,13.50
2023-03-29T10:50:35.092Z,13.37
2023-03-29T10:51:37.608Z,13.41
2023-03-29T10:52:40.411Z,13.38
2023-03-29T10:53:42.774Z,13.36
2023-03-29T10:54:45.330Z,13.46
2023-03-29T10:56:23.502Z,13.40
2023-03-29T10:57:46.900Z,13.43
2023-03-29T10:59:02.384Z,13.44
2023-03-29T11:00:11.370Z,13.45
2023-03-29T11:01:16.771Z,13.36
2023-03-29T11:02:42.099Z,13.62
2023-03-29T11:04:05.867Z,13.73
2023-03-29T11:05:26.514Z,13.63
2023-03-29T11:06:43.453Z,13.79
2023-03-29T11:08:07.082Z,13.90
2023-03-29T11:09:24.771Z,13.61
2023-03-29T11:10:57.916Z,13.38
2023-03-29T11:12:22.070Z,13.34
2023-03-29T11:13:33.456Z,13.23
2023-03-29T11:14:44.316Z,13.10
2023-03-29T11:16:05.230Z,12.99
2023-03-29T11:17:19.024Z,13.03
2023-03-29T11:18:54.711Z,12.77
2023-03-29T11:20:13.360Z,12.87
2023-03-29T11:21:33.480Z,12.77
2023-03-29T11:22:44.835Z,12.64
2023-03-29T11:23:52.245Z,12.66
2023-03-29T11:25:21.514Z,12.74
2023-03-29T11:26:48.713Z,12.88
2023-03-29T11:28:21.559Z,12.93
2023-03-29T11:29:25.483Z,13.09
2023-03-29T11:30:36.444Z,13.08
2023-03-29T11:31:48.396Z,13.23
2023-03-29T11:32:51.755Z,13.24
2023-03-29T11:34:12.183Z,13.27
2023-03-29T11:35:23.912Z,13.43
2023-03-29T11:36:36.008Z,13.28
2023-03-29T11:37:51.886Z,13.54
2023-03-29T11:39:04.899Z,13.64
2023-03-29T11:40:36.952Z,13.51
2023-03-29T11:41:42.081Z,13.50
2023-03-29T11:42:47.721Z,13.54
2023-03-29T11:43:51.753Z,13.40
2023-03-29T11:44:56.311Z,13.53
2023-03-29T11:46:06.494Z,13.68
2023-03-29T11:47:37.617Z,13.67
2023-03-29T11:48:51.227Z,13.53
2023-03-29T11:49:58.811Z,13.41
2023-03-29T11:51:21.648Z,13.12
2023-03-29T11:52:44.194Z,13.02
2023-03-29T11:53:49.173Z,13.10
2023-03-29T11:54:57.355Z,13.10
2023-03-29T11:56:09.086Z,13.11
2023-03-29T11:57:33.596Z,13.21
2023-03-29T11:58:39.123Z,13.12
2023-03-29T11:59:49.032Z,13.20
2023-03-29T12:01:10.135Z,13.21
2023-03-29T12:02:38.305Z,13.22
2023-03-29T12:03:57.004Z,13.19
2023-03-29T12:05:02.342Z,13.33
2023-03-29T12:06:12.203Z,13.21
2023-03-29T12:07:17.479Z,13.34
2023-03-29T12:08:41.016Z,13.39
2023-03-29T12:09:50.346Z,13.43
2023-03-29T12:10:58.527Z,13.57
2023-03-29T12:12:13.333Z,13.58
2023-03-29T12:13:15.172Z,13.69
2023-03-29T12:14:29.895Z,13.95
2023-03-29T12:15:50.394Z,13.97
2023-03-29T12:17:01.775Z,14.07
2023-03-29T12:18:15.402Z,14.27
2023-03-29T12:19:23.160Z,14.50
2023-03-29T12:20:28.722Z,14.80
2023-03-29T12:21:35.498Z,14.94
2023-03-29T12:22:38.284Z,15.24
2023-03-29T12:23:42.372Z,15.30
2023-03-29T12:24:46.607Z,15.43
2023-03-29T12:25:58.421Z,15.61
2023-03-29T12:27:20.829Z,15.86
2023-03-29T12:28:41.336Z,15.76
2023-03-29T12:29:55.813Z,15.85
2023-03-29T12:31:42.409Z,15.96
2023-03-29T12:33:15.323Z,15.64
2023-03-29T12:34:58.876Z,15.58
2023-03-29T12:36:09.583Z,15.49
2023-03-29T12:38:05.777Z,15.44
2023-03-29T12:39:37.689Z,15.47
2023-03-29T12:41:23.398Z,15.47
2023-03-29T12:43:05.612Z,15.20
2023-03-29T12:44:25.469Z,15.18
2023-03-29T12:45:39.932Z,15.12
2023-03-29T12:46:42.056Z,15.13
2023-03-29T12:47:45.705Z,15.21
2023-03-29T12:48:51.790Z,15.27
2023-03-29T12:49:57.517Z,15.19
2023-03-29T12:51:04.686Z,15.19
2023-03-29T12:52:27.805Z,15.22
2023-03-29T12:53:35.359Z,15.19
2023-03-29T12:54:37.727Z,15.30
2023-03-29T12:55:43.966Z,15.37
2023-03-29T12:56:52.574Z,15.40
2023-03-29T12:58:26.990Z,15.27
2023-03-29T12:59:42.535Z,15.20
2023-03-29T13:00:46.132Z,15.15
2023-03-29T13:02:28.632Z,15.22
2023-03-29T13:03:37.525Z,15.12
2023-03-29T13:04:52.510Z,15.13
2023-03-29T13:06:06.631Z,15.09
2023-03-29T13:07:16.044Z,15.16
2023-03-29T13:08:28.691Z,15.10
2023-03-29T13:09:48.372Z,15.22
2023-03-29T13:10:54.863Z,15.12
2023-03-29T13:12:04.491Z,15.21
2023-03-29T13:13:23.716Z,15.32
2023-03-29T13:14:30.796Z,15.41
2023-03-29T13:15:34.941Z,15.41
2023-03-29T13:16:38.207Z,15.43
2023-03-29T13:17:58.376Z,15.47
2023-03-29T13:19:10.499Z,15.48
2023-03-29T13:20:37.657Z,15.56
2023-03-29T13:22:04.734Z,15.30
2023-03-29T13:23:32.301Z,15.33
2023-03-29T13:24:45.939Z,15.30
2023-03-29T13:26:00.626Z,15.33
2023-03-29T13:27:27.509Z,15.20
2023-03-29T13:28:45.460Z,14.97
2023-03-29T13:29:56.346Z,15.01
2023-03-29T13:31:27.309Z,15.08
2023-03-29T13:32:41.500Z,15.19
2023-03-29T13:33:49.540Z,15.14
2023-03-29T13:35:06.390Z,15.10
2023-03-29T13:36:59.401Z,14.93
2023-03-29T13:38:23.274Z,14.89
2023-03-29T13:39:29.576Z,14.82
2023-03-29T13:40:40.609Z,14.83
2023-03-29T13:41:43.249Z,14.74
2023-03-29T13:42:58.721Z,14.67
2023-03-29T13:44:01.347Z,14.69
2023-03-29T13:45:23.956Z,14.58
2023-03-29T13:46:47.552Z,14.53
2023-03-29T13:48:02.617Z,14.59
2023-03-29T13:49:13.138Z,14.54
2023-03-29T13:50:22.177Z,14.59
2023-03-29T13:51:54.011Z,14.81
2023-03-29T13:53:04.225Z,14.84
2023-03-29T13:54:24.204Z,14.94
2023-03-29T13:55:32.234Z,14.74
2023-03-29T13:56:39.785Z,14.92
2023-03-29T13:57:47.701Z,14.93
2023-03-29T13:58:53.394Z,14.89
2023-03-29T13:59:59.870Z,14.79
2023-03-29T14:01:03.386Z,14.75
2023-03-29T14:02:06.570Z,14.76
2023-03-29T14:03:12.377Z,14.86
2023-03-29T14:04:20.611Z,14.82
2023-03-29T14:05:28.959Z,14.68
2023-03-29T14:06:33.606Z,14.66
2023-03-29T14:07:38.595Z,14.58
2023-03-29T14:08:44.430Z,14.68
2023-03-29T14:09:49.986Z,14.65
2023-03-29T14:10:53.766Z,14.52
2023-03-29T14:11:59.844Z,14.49
2023-03-29T14:13:04.271Z,14.35
2023-03-29T14:14:08.480Z,14.19
2023-03-29T14:15:27.271Z,14.07
2023-03-29T14:16:37.355Z,13.77
2023-03-29T14:17:40.260Z,13.81
2023-03-29T14:18:45.040Z,13.67
2023-03-29T14:19:47.415Z,13.63
2023-03-29T14:20:55.531Z,13.46
2023-03-29T14:21:58.235Z,13.43
2023-03-29T14:23:00.396Z,13.33
2023-03-29T14:24:03.215Z,13.31
2023-03-29T14:25:15.633Z,13.31
2023-03-29T14:26:21.839Z,13.27
2023-03-29T14:27:26.531Z,13.24
2023-03-29T14:28:29.311Z,13.20
2023-03-29T14:29:36.112Z,13.21
2023-03-29T14:30:39.893Z,13.07
2023-03-29T14:31:44.708Z,13.17
2023-03-29T14:32:48.815Z,13.13
2023-03-29T14:33:54.940Z,13.06
2023-03-29T14:34:56.999Z,13.00
2023-03-29T14:36:04.292Z,12.95
2023-03-29T14:37:09.057Z,12.86
2023-03-29T14:38:13.212Z,12.82
2023-03-29T14:39:21.816Z,12.70
2023-03-29T14:40:24.883Z,12.67
2023-03-29T14:41:34.444Z,12.68
2023-03-29T14:42:37.932Z,12.53
2023-03-29T14:43:40.279Z,12.40
2023-03-29T14:44:43.661Z,12.12
2023-03-29T14:45:47.494Z,12.01
2023-03-29T14:46:50.263Z,11.79
2023-03-29T14:47:52.258Z,11.63
2023-03-29T14:48:54.743Z,11.49
2023-03-29T14:49:58.885Z,11.34
2023-03-29T14:51:01.136Z,11.13
2023-03-29T14:52:03.481Z,11.11
2023-03-29T14:53:06.836Z,11.07
2023-03-29T14:54:10.644Z,11.12
2023-03-29T14:55:13.000Z,11.13
2023-03-29T14:56:18.479Z,11.09
2023-03-29T14:57:24.697Z,11.10
2023-03-29T14:58:32.994Z,11.20
2023-03-29T14:59:35.146Z,11.16
2023-03-29T15:00:42.729Z,11.15
2023-03-29T15:01:45.062Z,11.20
2023-03-29T15:03:14.127Z,11.14
2023-03-29T15:04:16.631Z,11.14
2023-03-29T15:05:25.454Z,11.19
2023-03-29T15:06:29.342Z,11.27
2023-03-29T15:07:32.746Z,11.29
2023-03-29T15:08:41.487Z,11.42
2023-03-29T15:09:48.245Z,11.38
2023-03-29T15:10:50.376Z,11.34
2023-03-29T15:11:54.633Z,11.37
2023-03-29T15:12:57.173Z,11.44
2023-03-29T15:14:11.566Z,11.41
2023-03-29T15:15:14.069Z,11.44
2023-03-29T15:16:22.995Z,11.40
2023-03-29T15:17:49.422Z,11.46
2023-03-29T15:18:53.280Z,11.37
2023-03-29T15:20:01.918Z,11.32
2023-03-29T15:21:05.181Z,11.39
2023-03-29T15:22:11.496Z,11.28
2023-03-29T15:23:13.499Z,11.35
2023-03-29T15:24:29.802Z,11.35
2023-03-29T15:25:38.082Z,11.43